Airfield :
LOGIN :

Register | Disclaimer

   EN    FR    IT 

 










Legend :    VFR   Marginal VFR   IFR   Intensive IFR   Very Intensive IFR
Visi :
Ceiling :
>= 8 km
>= 3000ft
5 to 8 km
1000 to 3000 ft
1500m to 5 km
500 to 1000 ft
800 to 1500m
200 to 500 ft
< 800m
< 200 ft
Symbols :   Thunderstorms  Fog  Heavy snow  Heavy precipitations  Wind > 20 kt
SIGMETs :     Misc.  Thunderstorms  Icing  Turbulence  Mountain Waves  Volcanic Ashes






- Airport Elevation : 90 ft
- IATA code : NTE


LFRS - Nantes

CURRENT METAR :
  • 150700Z AUTO 21006KT 9999 SCT033 SCT076 10/09 Q1008 TEMPO 4500 -SHRA BKN020TCU

EXPIRED METARs :
  • 150630Z AUTO 25006KT 9999 FEW031/// BKN080/// ///TCU 11/10 Q1008 TEMPO 4500 -SHRA
  • 150600Z AUTO 23005KT 9999 SCT028 SCT034 11/10 Q1008 TEMPO 4500 -SHRA BKN020TCU
  • 150530Z AUTO 21005KT 9999 FEW032 11/10 Q1008 TEMPO 4500 -SHRA BKN020TCU
  • 150500Z AUTO 22006KT CAVOK 11/10 Q1008 TEMPO 4500 -SHRA BKN020TCU
  • 150430Z AUTO 24006KT 9999 FEW030 SCT066 11/10 Q1008 TEMPO 4500 -SHRA BKN020TCU
  • 150400Z AUTO 21005KT CAVOK 12/10 Q1007 TEMPO 4500 -SHRA BKN020TCU

TAF TAF LFRS
Valid from the 15 at 06:00 until the 16 at 12:00 UTC


150500Z 1506/1612 25007KT 9999 SCT030
TEMPO 1506/1518 4500 -SHRA BKN020TCU
BECMG 1518/1520 19010KT
TEMPO 1521/1603 4500 -RA BKN014
BECMG 1600/1603 20015G25KT -RA BKN014
TEMPO 1603/1612 20016G30KT 2000 RA BKN009
ATIS : +33 2 40 05 12 74



MET'MAP, your aeronautical weather chart ! - Copyright ORBIFLY December 2007 - Disclaimer

ORBIFLY MET'MAP TEAM :

Programming & Development : Alexandra Zaïnal
Concept & Development : Baudouin d'Aumeries
Co-Development & Prog : Marc-Olivier Méhu
Technical & hardware support : Manuel Goepfert

Contact : metmap@orbifly.com




SOURCES & CREDITS :

   NOAA